sensor_id;sensor_type;location;lat;lon;timestamp;P1;durP1;ratioP1;P2;durP2;ratioP2
19889;SDS011;10107;51.198;6.824;2023-07-20T00:00:05;4.00;;;3.30;;
19889;SDS011;10107;51.198;6.824;2023-07-20T00:04:13;3.65;;;2.90;;
19889;SDS011;10107;51.198;6.824;2023-07-20T00:08:16;3.25;;;2.92;;
19889;SDS011;10107;51.198;6.824;2023-07-20T00:12:19;6.13;;;3.08;;
19889;SDS011;10107;51.198;6.824;2023-07-20T00:16:21;4.07;;;3.28;;
19889;SDS011;10107;51.198;6.824;2023-07-20T00:20:23;2.85;;;2.63;;
19889;SDS011;10107;51.198;6.824;2023-07-20T00:24:26;5.50;;;3.63;;
19889;SDS011;10107;51.198;6.824;2023-07-20T00:28:28;5.07;;;3.57;;
19889;SDS011;10107;51.198;6.824;2023-07-20T00:32:29;4.68;;;3.40;;
19889;SDS011;10107;51.198;6.824;2023-07-20T00:36:31;4.80;;;3.47;;
19889;SDS011;10107;51.198;6.824;2023-07-20T00:40:37;4.10;;;3.20;;
19889;SDS011;10107;51.198;6.824;2023-07-20T00:44:39;4.20;;;3.00;;
19889;SDS011;10107;51.198;6.824;2023-07-20T00:48:41;4.18;;;3.15;;
19889;SDS011;10107;51.198;6.824;2023-07-20T00:52:43;4.22;;;3.10;;
19889;SDS011;10107;51.198;6.824;2023-07-20T00:56:46;4.50;;;3.00;;
19889;SDS011;10107;51.198;6.824;2023-07-20T01:00:48;5.22;;;3.13;;
19889;SDS011;10107;51.198;6.824;2023-07-20T01:04:50;4.43;;;2.90;;
19889;SDS011;10107;51.198;6.824;2023-07-20T01:08:55;4.15;;;3.10;;
19889;SDS011;10107;51.198;6.824;2023-07-20T01:13:05;4.55;;;2.90;;
19889;SDS011;10107;51.198;6.824;2023-07-20T01:17:08;4.63;;;2.95;;
19889;SDS011;10107;51.198;6.824;2023-07-20T01:21:18;3.38;;;2.90;;
19889;SDS011;10107;51.198;6.824;2023-07-20T01:25:29;3.67;;;2.90;;
19889;SDS011;10107;51.198;6.824;2023-07-20T01:29:53;3.72;;;2.80;;
19889;SDS011;10107;51.198;6.824;2023-07-20T01:34:07;3.70;;;2.80;;
19889;SDS011;10107;51.198;6.824;2023-07-20T01:38:11;5.47;;;3.38;;
19889;SDS011;10107;51.198;6.824;2023-07-20T01:46:16;5.43;;;3.38;;
19889;SDS011;10107;51.198;6.824;2023-07-20T01:50:20;4.50;;;3.50;;
19889;SDS011;10107;51.198;6.824;2023-07-20T01:54:21;3.30;;;2.30;;
19889;SDS011;10107;51.198;6.824;2023-07-20T01:58:23;3.70;;;3.05;;
19889;SDS011;10107;51.198;6.824;2023-07-20T02:02:26;4.38;;;3.10;;
19889;SDS011;10107;51.198;6.824;2023-07-20T02:06:30;4.22;;;3.05;;
19889;SDS011;10107;51.198;6.824;2023-07-20T02:14:33;3.40;;;3.03;;
19889;SDS011;10107;51.198;6.824;2023-07-20T02:18:34;4.78;;;3.42;;
19889;SDS011;10107;51.198;6.824;2023-07-20T02:22:38;4.05;;;3.35;;
19889;SDS011;10107;51.198;6.824;2023-07-20T02:26:41;3.88;;;2.97;;
19889;SDS011;10107;51.198;6.824;2023-07-20T02:30:43;3.63;;;3.10;;
19889;SDS011;10107;51.198;6.824;2023-07-20T02:34:46;4.35;;;3.20;;
19889;SDS011;10107;51.198;6.824;2023-07-20T02:38:49;3.55;;;2.78;;
19889;SDS011;10107;51.198;6.824;2023-07-20T02:42:50;5.03;;;3.23;;
19889;SDS011;10107;51.198;6.824;2023-07-20T02:46:52;5.38;;;3.47;;
19889;SDS011;10107;51.198;6.824;2023-07-20T02:50:54;4.55;;;3.10;;
19889;SDS011;10107;51.198;6.824;2023-07-20T02:54:57;5.40;;;3.90;;
19889;SDS011;10107;51.198;6.824;2023-07-20T02:58:58;5.17;;;3.67;;
19889;SDS011;10107;51.198;6.824;2023-07-20T03:03:00;7.53;;;3.83;;
19889;SDS011;10107;51.198;6.824;2023-07-20T03:07:02;5.15;;;3.42;;
19889;SDS011;10107;51.198;6.824;2023-07-20T03:11:06;4.25;;;3.80;;
19889;SDS011;10107;51.198;6.824;2023-07-20T03:15:08;5.65;;;3.65;;
19889;SDS011;10107;51.198;6.824;2023-07-20T03:19:11;6.28;;;3.80;;
19889;SDS011;10107;51.198;6.824;2023-07-20T03:23:12;6.15;;;3.85;;
19889;SDS011;10107;51.198;6.824;2023-07-20T03:27:15;4.75;;;3.72;;
19889;SDS011;10107;51.198;6.824;2023-07-20T03:31:17;7.70;;;3.80;;
19889;SDS011;10107;51.198;6.824;2023-07-20T03:35:19;5.57;;;4.05;;
19889;SDS011;10107;51.198;6.824;2023-07-20T03:39:21;5.72;;;3.65;;
19889;SDS011;10107;51.198;6.824;2023-07-20T03:43:25;4.60;;;3.53;;
19889;SDS011;10107;51.198;6.824;2023-07-20T03:47:28;5.40;;;3.75;;
19889;SDS011;10107;51.198;6.824;2023-07-20T03:51:30;5.95;;;3.90;;
19889;SDS011;10107;51.198;6.824;2023-07-20T03:55:32;6.15;;;4.15;;
19889;SDS011;10107;51.198;6.824;2023-07-20T03:59:34;5.05;;;3.60;;
19889;SDS011;10107;51.198;6.824;2023-07-20T04:03:38;5.97;;;3.75;;
19889;SDS011;10107;51.198;6.824;2023-07-20T04:07:39;4.80;;;3.67;;
19889;SDS011;10107;51.198;6.824;2023-07-20T04:11:41;5.85;;;3.95;;
19889;SDS011;10107;51.198;6.824;2023-07-20T04:15:44;6.57;;;4.20;;
19889;SDS011;10107;51.198;6.824;2023-07-20T04:19:46;5.32;;;3.97;;
19889;SDS011;10107;51.198;6.824;2023-07-20T04:23:47;6.18;;;4.20;;
19889;SDS011;10107;51.198;6.824;2023-07-20T04:27:49;8.02;;;4.63;;
19889;SDS011;10107;51.198;6.824;2023-07-20T04:31:53;7.63;;;4.28;;
19889;SDS011;10107;51.198;6.824;2023-07-20T04:35:55;6.07;;;4.00;;
19889;SDS011;10107;51.198;6.824;2023-07-20T04:40:02;7.38;;;4.78;;
19889;SDS011;10107;51.198;6.824;2023-07-20T04:44:05;8.40;;;5.18;;
19889;SDS011;10107;51.198;6.824;2023-07-20T04:48:08;7.70;;;5.35;;
19889;SDS011;10107;51.198;6.824;2023-07-20T04:52:15;8.60;;;5.47;;
19889;SDS011;10107;51.198;6.824;2023-07-20T04:56:17;8.23;;;5.47;;
19889;SDS011;10107;51.198;6.824;2023-07-20T05:00:20;6.82;;;5.13;;
19889;SDS011;10107;51.198;6.824;2023-07-20T05:04:24;8.23;;;5.10;;
19889;SDS011;10107;51.198;6.824;2023-07-20T05:08:28;7.95;;;5.32;;
19889;SDS011;10107;51.198;6.824;2023-07-20T05:12:31;5.30;;;4.20;;
19889;SDS011;10107;51.198;6.824;2023-07-20T05:16:33;9.43;;;7.40;;
19889;SDS011;10107;51.198;6.824;2023-07-20T05:20:40;9.73;;;6.72;;
19889;SDS011;10107;51.198;6.824;2023-07-20T05:24:42;9.35;;;6.72;;
19889;SDS011;10107;51.198;6.824;2023-07-20T05:28:44;14.13;;;10.07;;
19889;SDS011;10107;51.198;6.824;2023-07-20T05:32:46;12.02;;;8.80;;
19889;SDS011;10107;51.198;6.824;2023-07-20T05:36:52;12.45;;;9.18;;
19889;SDS011;10107;51.198;6.824;2023-07-20T05:40:58;11.90;;;8.13;;
19889;SDS011;10107;51.198;6.824;2023-07-20T05:45:01;9.25;;;7.30;;
19889;SDS011;10107;51.198;6.824;2023-07-20T05:49:03;11.05;;;7.40;;
19889;SDS011;10107;51.198;6.824;2023-07-20T05:53:06;8.68;;;7.20;;
19889;SDS011;10107;51.198;6.824;2023-07-20T05:57:07;10.03;;;8.03;;
19889;SDS011;10107;51.198;6.824;2023-07-20T06:01:09;10.90;;;7.07;;
19889;SDS011;10107;51.198;6.824;2023-07-20T06:05:11;7.32;;;6.00;;
19889;SDS011;10107;51.198;6.824;2023-07-20T06:09:14;6.50;;;5.80;;
19889;SDS011;10107;51.198;6.824;2023-07-20T06:13:16;10.60;;;7.33;;
19889;SDS011;10107;51.198;6.824;2023-07-20T06:17:17;9.57;;;7.18;;
19889;SDS011;10107;51.198;6.824;2023-07-20T06:21:19;8.23;;;6.55;;
19889;SDS011;10107;51.198;6.824;2023-07-20T06:25:22;7.50;;;6.03;;
19889;SDS011;10107;51.198;6.824;2023-07-20T06:29:23;9.13;;;6.90;;
19889;SDS011;10107;51.198;6.824;2023-07-20T06:33:25;6.20;;;5.05;;
19889;SDS011;10107;51.198;6.824;2023-07-20T06:37:27;7.05;;;5.47;;
19889;SDS011;10107;51.198;6.824;2023-07-20T06:41:30;7.43;;;5.60;;
19889;SDS011;10107;51.198;6.824;2023-07-20T06:45:31;7.50;;;5.47;;
19889;SDS011;10107;51.198;6.824;2023-07-20T06:49:33;6.43;;;5.10;;
19889;SDS011;10107;51.198;6.824;2023-07-20T06:53:37;4.80;;;4.32;;
19889;SDS011;10107;51.198;6.824;2023-07-20T06:57:40;4.95;;;3.40;;
19889;SDS011;10107;51.198;6.824;2023-07-20T07:01:42;3.22;;;2.85;;
19889;SDS011;10107;51.198;6.824;2023-07-20T07:05:44;2.75;;;2.55;;
19889;SDS011;10107;51.198;6.824;2023-07-20T07:09:46;5.00;;;3.15;;
19889;SDS011;10107;51.198;6.824;2023-07-20T07:13:49;3.60;;;3.30;;
19889;SDS011;10107;51.198;6.824;2023-07-20T07:17:51;3.47;;;2.72;;
19889;SDS011;10107;51.198;6.824;2023-07-20T07:21:53;2.53;;;2.22;;
19889;SDS011;10107;51.198;6.824;2023-07-20T07:25:54;2.28;;;1.90;;
19889;SDS011;10107;51.198;6.824;2023-07-20T07:29:57;3.38;;;2.70;;
19889;SDS011;10107;51.198;6.824;2023-07-20T07:33:59;1.77;;;1.67;;
19889;SDS011;10107;51.198;6.824;2023-07-20T07:38:01;2.20;;;2.00;;
19889;SDS011;10107;51.198;6.824;2023-07-20T07:42:03;1.92;;;1.70;;
19889;SDS011;10107;51.198;6.824;2023-07-20T07:46:06;3.42;;;1.65;;
19889;SDS011;10107;51.198;6.824;2023-07-20T07:50:08;1.80;;;1.48;;
19889;SDS011;10107;51.198;6.824;2023-07-20T07:54:11;2.17;;;1.77;;
19889;SDS011;10107;51.198;6.824;2023-07-20T07:58:13;2.55;;;1.88;;
19889;SDS011;10107;51.198;6.824;2023-07-20T08:02:16;2.92;;;2.00;;
19889;SDS011;10107;51.198;6.824;2023-07-20T08:06:17;1.88;;;1.73;;
19889;SDS011;10107;51.198;6.824;2023-07-20T08:10:19;1.50;;;1.40;;
19889;SDS011;10107;51.198;6.824;2023-07-20T08:14:20;1.20;;;1.10;;
19889;SDS011;10107;51.198;6.824;2023-07-20T08:18:24;0.90;;;0.80;;
19889;SDS011;10107;51.198;6.824;2023-07-20T08:26:27;2.65;;;1.00;;
19889;SDS011;10107;51.198;6.824;2023-07-20T08:30:38;0.80;;;0.75;;
19889;SDS011;10107;51.198;6.824;2023-07-20T08:34:43;0.98;;;0.80;;
19889;SDS011;10107;51.198;6.824;2023-07-20T08:38:44;0.73;;;0.70;;
19889;SDS011;10107;51.198;6.824;2023-07-20T08:42:46;0.60;;;0.60;;
19889;SDS011;10107;51.198;6.824;2023-07-20T08:46:48;0.70;;;0.60;;
19889;SDS011;10107;51.198;6.824;2023-07-20T08:50:52;0.50;;;0.50;;
19889;SDS011;10107;51.198;6.824;2023-07-20T08:54:54;0.43;;;0.43;;
19889;SDS011;10107;51.198;6.824;2023-07-20T08:58:56;1.33;;;0.52;;
19889;SDS011;10107;51.198;6.824;2023-07-20T09:02:58;0.83;;;0.53;;
19889;SDS011;10107;51.198;6.824;2023-07-20T09:07:04;0.60;;;0.60;;
19889;SDS011;10107;51.198;6.824;2023-07-20T09:11:06;1.00;;;0.60;;
19889;SDS011;10107;51.198;6.824;2023-07-20T09:15:09;1.27;;;0.80;;
19889;SDS011;10107;51.198;6.824;2023-07-20T09:19:11;0.60;;;0.60;;
19889;SDS011;10107;51.198;6.824;2023-07-20T09:23:14;1.25;;;0.90;;
19889;SDS011;10107;51.198;6.824;2023-07-20T09:27:16;0.70;;;0.70;;
19889;SDS011;10107;51.198;6.824;2023-07-20T09:31:19;1.63;;;0.75;;
19889;SDS011;10107;51.198;6.824;2023-07-20T09:39:25;0.77;;;0.75;;
19889;SDS011;10107;51.198;6.824;2023-07-20T09:43:28;1.15;;;0.70;;
19889;SDS011;10107;51.198;6.824;2023-07-20T09:47:31;1.00;;;0.60;;
19889;SDS011;10107;51.198;6.824;2023-07-20T09:51:33;0.40;;;0.38;;
19889;SDS011;10107;51.198;6.824;2023-07-20T09:55:36;1.20;;;0.60;;
19889;SDS011;10107;51.198;6.824;2023-07-20T09:59:39;0.60;;;0.60;;
19889;SDS011;10107;51.198;6.824;2023-07-20T10:03:42;1.02;;;0.80;;
19889;SDS011;10107;51.198;6.824;2023-07-20T10:07:47;0.75;;;0.75;;
19889;SDS011;10107;51.198;6.824;2023-07-20T10:11:51;0.52;;;0.50;;
19889;SDS011;10107;51.198;6.824;2023-07-20T10:15:54;0.43;;;0.43;;
19889;SDS011;10107;51.198;6.824;2023-07-20T10:20:00;0.30;;;0.30;;
19889;SDS011;10107;51.198;6.824;2023-07-20T10:24:05;0.55;;;0.45;;
19889;SDS011;10107;51.198;6.824;2023-07-20T10:32:11;0.52;;;0.50;;
19889;SDS011;10107;51.198;6.824;2023-07-20T10:36:13;0.70;;;0.60;;
19889;SDS011;10107;51.198;6.824;2023-07-20T10:40:25;1.58;;;0.70;;
19889;SDS011;10107;51.198;6.824;2023-07-20T10:44:29;0.95;;;0.60;;
19889;SDS011;10107;51.198;6.824;2023-07-20T10:48:32;0.75;;;0.60;;
19889;SDS011;10107;51.198;6.824;2023-07-20T10:52:36;0.57;;;0.57;;
19889;SDS011;10107;51.198;6.824;2023-07-20T10:56:38;0.70;;;0.70;;
19889;SDS011;10107;51.198;6.824;2023-07-20T11:01:01;0.70;;;0.50;;
19889;SDS011;10107;51.198;6.824;2023-07-20T11:05:06;0.80;;;0.60;;
19889;SDS011;10107;51.198;6.824;2023-07-20T11:09:11;0.45;;;0.45;;
19889;SDS011;10107;51.198;6.824;2023-07-20T11:13:15;1.27;;;0.63;;
19889;SDS011;10107;51.198;6.824;2023-07-20T11:17:28;0.93;;;0.57;;
19889;SDS011;10107;51.198;6.824;2023-07-20T11:21:35;0.73;;;0.50;;
19889;SDS011;10107;51.198;6.824;2023-07-20T11:25:38;0.90;;;0.70;;
19889;SDS011;10107;51.198;6.824;2023-07-20T11:29:40;1.25;;;0.60;;
19889;SDS011;10107;51.198;6.824;2023-07-20T11:33:44;0.70;;;0.70;;
19889;SDS011;10107;51.198;6.824;2023-07-20T11:37:46;2.15;;;0.73;;
19889;SDS011;10107;51.198;6.824;2023-07-20T11:41:48;0.77;;;0.77;;
19889;SDS011;10107;51.198;6.824;2023-07-20T11:45:50;2.90;;;0.70;;
19889;SDS011;10107;51.198;6.824;2023-07-20T11:49:53;0.73;;;0.68;;
19889;SDS011;10107;51.198;6.824;2023-07-20T11:58:03;1.13;;;0.75;;
19889;SDS011;10107;51.198;6.824;2023-07-20T12:02:06;0.70;;;0.70;;
19889;SDS011;10107;51.198;6.824;2023-07-20T12:06:09;0.87;;;0.73;;
19889;SDS011;10107;51.198;6.824;2023-07-20T12:10:12;1.38;;;0.90;;
19889;SDS011;10107;51.198;6.824;2023-07-20T12:14:13;1.17;;;0.70;;
19889;SDS011;10107;51.198;6.824;2023-07-20T12:18:15;1.90;;;0.80;;
19889;SDS011;10107;51.198;6.824;2023-07-20T12:22:18;1.02;;;0.80;;
19889;SDS011;10107;51.198;6.824;2023-07-20T12:26:20;0.70;;;0.70;;
19889;SDS011;10107;51.198;6.824;2023-07-20T12:30:22;0.60;;;0.60;;
19889;SDS011;10107;51.198;6.824;2023-07-20T12:34:24;0.63;;;0.63;;
19889;SDS011;10107;51.198;6.824;2023-07-20T12:38:27;1.42;;;0.93;;
19889;SDS011;10107;51.198;6.824;2023-07-20T12:42:31;0.60;;;0.60;;
19889;SDS011;10107;51.198;6.824;2023-07-20T12:46:32;1.15;;;0.70;;
19889;SDS011;10107;51.198;6.824;2023-07-20T12:50:36;1.17;;;0.80;;
19889;SDS011;10107;51.198;6.824;2023-07-20T12:54:39;1.05;;;0.80;;
19889;SDS011;10107;51.198;6.824;2023-07-20T13:02:43;0.90;;;0.73;;
19889;SDS011;10107;51.198;6.824;2023-07-20T13:06:44;0.70;;;0.70;;
19889;SDS011;10107;51.198;6.824;2023-07-20T13:10:47;2.28;;;1.00;;
19889;SDS011;10107;51.198;6.824;2023-07-20T13:14:49;1.25;;;1.00;;
19889;SDS011;10107;51.198;6.824;2023-07-20T13:18:51;0.80;;;0.68;;
19889;SDS011;10107;51.198;6.824;2023-07-20T13:22:53;1.42;;;0.90;;
19889;SDS011;10107;51.198;6.824;2023-07-20T13:26:56;0.68;;;0.60;;
19889;SDS011;10107;51.198;6.824;2023-07-20T13:30:58;2.28;;;1.10;;
19889;SDS011;10107;51.198;6.824;2023-07-20T13:34:59;1.35;;;0.90;;
19889;SDS011;10107;51.198;6.824;2023-07-20T13:39:01;1.70;;;1.25;;
19889;SDS011;10107;51.198;6.824;2023-07-20T13:43:06;1.17;;;0.88;;
19889;SDS011;10107;51.198;6.824;2023-07-20T13:47:07;1.05;;;0.90;;
19889;SDS011;10107;51.198;6.824;2023-07-20T13:51:09;0.77;;;0.60;;
19889;SDS011;10107;51.198;6.824;2023-07-20T13:55:11;1.13;;;1.02;;
19889;SDS011;10107;51.198;6.824;2023-07-20T13:59:14;0.90;;;0.90;;
19889;SDS011;10107;51.198;6.824;2023-07-20T14:03:16;1.25;;;0.88;;
19889;SDS011;10107;51.198;6.824;2023-07-20T14:07:18;0.90;;;0.90;;
19889;SDS011;10107;51.198;6.824;2023-07-20T14:11:19;1.15;;;0.90;;
19889;SDS011;10107;51.198;6.824;2023-07-20T14:15:22;0.90;;;0.90;;
19889;SDS011;10107;51.198;6.824;2023-07-20T14:19:24;1.88;;;1.15;;
19889;SDS011;10107;51.198;6.824;2023-07-20T14:23:25;1.58;;;0.93;;
19889;SDS011;10107;51.198;6.824;2023-07-20T14:27:27;0.90;;;0.88;;
19889;SDS011;10107;51.198;6.824;2023-07-20T14:31:30;0.95;;;0.90;;
19889;SDS011;10107;51.198;6.824;2023-07-20T14:35:32;0.95;;;0.85;;
19889;SDS011;10107;51.198;6.824;2023-07-20T14:39:34;1.45;;;1.08;;
19889;SDS011;10107;51.198;6.824;2023-07-20T14:43:36;1.00;;;0.70;;
19889;SDS011;10107;51.198;6.824;2023-07-20T14:47:40;1.02;;;0.90;;
19889;SDS011;10107;51.198;6.824;2023-07-20T14:51:43;1.70;;;0.80;;
19889;SDS011;10107;51.198;6.824;2023-07-20T14:55:47;0.63;;;0.63;;
19889;SDS011;10107;51.198;6.824;2023-07-20T14:59:48;0.77;;;0.77;;
19889;SDS011;10107;51.198;6.824;2023-07-20T15:03:51;3.60;;;0.80;;
19889;SDS011;10107;51.198;6.824;2023-07-20T15:07:53;1.25;;;0.90;;
19889;SDS011;10107;51.198;6.824;2023-07-20T15:11:55;1.00;;;0.90;;
19889;SDS011;10107;51.198;6.824;2023-07-20T15:15:57;0.90;;;0.77;;
19889;SDS011;10107;51.198;6.824;2023-07-20T15:20:00;1.67;;;1.05;;
19889;SDS011;10107;51.198;6.824;2023-07-20T15:24:04;0.85;;;0.85;;
19889;SDS011;10107;51.198;6.824;2023-07-20T15:28:06;1.88;;;0.70;;
19889;SDS011;10107;51.198;6.824;2023-07-20T15:32:08;1.17;;;0.75;;
19889;SDS011;10107;51.198;6.824;2023-07-20T15:36:11;0.98;;;0.88;;
19889;SDS011;10107;51.198;6.824;2023-07-20T15:40:13;0.80;;;0.80;;
19889;SDS011;10107;51.198;6.824;2023-07-20T15:44:15;1.40;;;0.90;;
19889;SDS011;10107;51.198;6.824;2023-07-20T15:48:16;1.00;;;0.90;;
19889;SDS011;10107;51.198;6.824;2023-07-20T15:52:20;1.55;;;1.10;;
19889;SDS011;10107;51.198;6.824;2023-07-20T15:56:23;1.10;;;1.00;;
19889;SDS011;10107;51.198;6.824;2023-07-20T16:00:24;0.93;;;0.82;;
19889;SDS011;10107;51.198;6.824;2023-07-20T16:04:26;1.15;;;0.95;;
19889;SDS011;10107;51.198;6.824;2023-07-20T16:08:29;0.85;;;0.85;;
19889;SDS011;10107;51.198;6.824;2023-07-20T16:12:31;1.48;;;0.95;;
19889;SDS011;10107;51.198;6.824;2023-07-20T16:16:33;1.52;;;0.80;;
19889;SDS011;10107;51.198;6.824;2023-07-20T16:20:35;1.77;;;0.80;;
19889;SDS011;10107;51.198;6.824;2023-07-20T16:24:38;1.08;;;0.98;;
19889;SDS011;10107;51.198;6.824;2023-07-20T16:28:40;1.00;;;0.90;;
19889;SDS011;10107;51.198;6.824;2023-07-20T16:32:43;1.00;;;0.90;;
19889;SDS011;10107;51.198;6.824;2023-07-20T16:36:45;1.08;;;0.90;;
19889;SDS011;10107;51.198;6.824;2023-07-20T16:40:49;1.20;;;1.10;;
19889;SDS011;10107;51.198;6.824;2023-07-20T16:44:51;2.05;;;1.05;;
19889;SDS011;10107;51.198;6.824;2023-07-20T16:48:53;1.23;;;0.98;;
19889;SDS011;10107;51.198;6.824;2023-07-20T16:52:54;1.27;;;1.00;;
19889;SDS011;10107;51.198;6.824;2023-07-20T16:56:58;0.90;;;0.90;;
19889;SDS011;10107;51.198;6.824;2023-07-20T17:00:59;0.93;;;0.90;;
19889;SDS011;10107;51.198;6.824;2023-07-20T17:05:02;1.15;;;0.70;;
19889;SDS011;10107;51.198;6.824;2023-07-20T17:09:05;0.80;;;0.80;;
19889;SDS011;10107;51.198;6.824;2023-07-20T17:13:08;1.00;;;0.90;;
19889;SDS011;10107;51.198;6.824;2023-07-20T17:17:10;1.27;;;1.00;;
19889;SDS011;10107;51.198;6.824;2023-07-20T17:21:13;1.50;;;1.20;;
19889;SDS011;10107;51.198;6.824;2023-07-20T17:25:15;1.30;;;1.20;;
19889;SDS011;10107;51.198;6.824;2023-07-20T17:29:18;1.15;;;0.98;;
19889;SDS011;10107;51.198;6.824;2023-07-20T17:33:20;1.70;;;1.02;;
19889;SDS011;10107;51.198;6.824;2023-07-20T17:37:22;0.88;;;0.88;;
19889;SDS011;10107;51.198;6.824;2023-07-20T17:41:24;2.40;;;1.00;;
19889;SDS011;10107;51.198;6.824;2023-07-20T17:45:27;1.70;;;1.10;;
19889;SDS011;10107;51.198;6.824;2023-07-20T17:49:29;1.95;;;1.00;;
19889;SDS011;10107;51.198;6.824;2023-07-20T17:53:31;1.58;;;1.10;;
19889;SDS011;10107;51.198;6.824;2023-07-20T17:57:33;1.15;;;1.05;;
19889;SDS011;10107;51.198;6.824;2023-07-20T18:01:36;1.10;;;1.00;;
19889;SDS011;10107;51.198;6.824;2023-07-20T18:05:38;1.05;;;0.95;;
19889;SDS011;10107;51.198;6.824;2023-07-20T18:09:40;1.08;;;0.98;;
19889;SDS011;10107;51.198;6.824;2023-07-20T18:13:42;1.15;;;1.05;;
19889;SDS011;10107;51.198;6.824;2023-07-20T18:17:45;0.90;;;0.90;;
19889;SDS011;10107;51.198;6.824;2023-07-20T18:21:46;1.67;;;1.05;;
19889;SDS011;10107;51.198;6.824;2023-07-20T18:25:48;1.60;;;1.00;;
19889;SDS011;10107;51.198;6.824;2023-07-20T18:29:50;1.42;;;1.20;;
19889;SDS011;10107;51.198;6.824;2023-07-20T18:33:53;2.50;;;1.65;;
19889;SDS011;10107;51.198;6.824;2023-07-20T18:37:55;3.13;;;1.50;;
19889;SDS011;10107;51.198;6.824;2023-07-20T18:41:57;2.10;;;1.38;;
19889;SDS011;10107;51.198;6.824;2023-07-20T18:45:59;1.73;;;1.50;;
19889;SDS011;10107;51.198;6.824;2023-07-20T18:50:02;2.22;;;1.60;;
19889;SDS011;10107;51.198;6.824;2023-07-20T18:54:04;1.98;;;1.23;;
19889;SDS011;10107;51.198;6.824;2023-07-20T18:58:06;1.85;;;1.45;;
19889;SDS011;10107;51.198;6.824;2023-07-20T19:02:07;1.92;;;1.52;;
19889;SDS011;10107;51.198;6.824;2023-07-20T19:06:10;1.63;;;1.15;;
19889;SDS011;10107;51.198;6.824;2023-07-20T19:10:14;2.00;;;1.50;;
19889;SDS011;10107;51.198;6.824;2023-07-20T19:14:17;1.67;;;1.30;;
19889;SDS011;10107;51.198;6.824;2023-07-20T19:18:19;1.50;;;1.27;;
19889;SDS011;10107;51.198;6.824;2023-07-20T19:22:22;1.80;;;1.52;;
19889;SDS011;10107;51.198;6.824;2023-07-20T19:26:24;2.08;;;1.48;;
19889;SDS011;10107;51.198;6.824;2023-07-20T19:30:26;1.77;;;1.50;;
19889;SDS011;10107;51.198;6.824;2023-07-20T19:34:27;1.52;;;1.23;;
19889;SDS011;10107;51.198;6.824;2023-07-20T19:38:30;1.52;;;1.42;;
19889;SDS011;10107;51.198;6.824;2023-07-20T19:42:32;2.28;;;1.20;;
19889;SDS011;10107;51.198;6.824;2023-07-20T19:46:34;1.80;;;1.40;;
19889;SDS011;10107;51.198;6.824;2023-07-20T19:50:35;1.60;;;1.50;;
19889;SDS011;10107;51.198;6.824;2023-07-20T19:54:38;1.88;;;1.55;;
19889;SDS011;10107;51.198;6.824;2023-07-20T19:58:40;1.50;;;1.40;;
19889;SDS011;10107;51.198;6.824;2023-07-20T20:02:42;1.63;;;1.50;;
19889;SDS011;10107;51.198;6.824;2023-07-20T20:06:43;1.55;;;1.30;;
19889;SDS011;10107;51.198;6.824;2023-07-20T20:10:46;3.67;;;1.40;;
19889;SDS011;10107;51.198;6.824;2023-07-20T20:14:48;1.50;;;1.40;;
19889;SDS011;10107;51.198;6.824;2023-07-20T20:18:50;2.83;;;1.40;;
19889;SDS011;10107;51.198;6.824;2023-07-20T20:22:52;1.80;;;1.40;;
19889;SDS011;10107;51.198;6.824;2023-07-20T20:26:55;1.30;;;1.20;;
19889;SDS011;10107;51.198;6.824;2023-07-20T20:30:57;1.48;;;1.35;;
19889;SDS011;10107;51.198;6.824;2023-07-20T20:35:00;2.60;;;1.45;;
19889;SDS011;10107;51.198;6.824;2023-07-20T20:39:03;3.25;;;1.40;;
19889;SDS011;10107;51.198;6.824;2023-07-20T20:43:06;1.80;;;1.60;;
19889;SDS011;10107;51.198;6.824;2023-07-20T20:51:10;3.67;;;2.60;;
19889;SDS011;10107;51.198;6.824;2023-07-20T20:55:12;2.53;;;2.33;;
19889;SDS011;10107;51.198;6.824;2023-07-20T20:59:15;3.33;;;2.20;;
19889;SDS011;10107;51.198;6.824;2023-07-20T21:03:19;2.85;;;2.55;;
19889;SDS011;10107;51.198;6.824;2023-07-20T21:07:21;6.05;;;3.22;;
19889;SDS011;10107;51.198;6.824;2023-07-20T21:11:25;4.13;;;3.03;;
19889;SDS011;10107;51.198;6.824;2023-07-20T21:15:28;3.67;;;3.35;;
19889;SDS011;10107;51.198;6.824;2023-07-20T21:19:30;3.90;;;3.38;;
19889;SDS011;10107;51.198;6.824;2023-07-20T21:23:31;3.80;;;3.40;;
19889;SDS011;10107;51.198;6.824;2023-07-20T21:27:33;4.93;;;4.47;;
19889;SDS011;10107;51.198;6.824;2023-07-20T21:31:36;4.38;;;3.83;;
19889;SDS011;10107;51.198;6.824;2023-07-20T21:35:38;3.50;;;3.10;;
19889;SDS011;10107;51.198;6.824;2023-07-20T21:39:40;6.35;;;5.30;;
19889;SDS011;10107;51.198;6.824;2023-07-20T21:43:42;4.40;;;4.00;;
19889;SDS011;10107;51.198;6.824;2023-07-20T21:47:45;5.38;;;4.75;;
19889;SDS011;10107;51.198;6.824;2023-07-20T21:51:48;8.00;;;5.80;;
19889;SDS011;10107;51.198;6.824;2023-07-20T21:55:49;7.28;;;5.43;;
19889;SDS011;10107;51.198;6.824;2023-07-20T21:59:51;5.10;;;4.60;;
19889;SDS011;10107;51.198;6.824;2023-07-20T22:03:54;5.80;;;5.20;;
19889;SDS011;10107;51.198;6.824;2023-07-20T22:07:56;7.47;;;6.68;;
19889;SDS011;10107;51.198;6.824;2023-07-20T22:11:59;5.57;;;5.07;;
19889;SDS011;10107;51.198;6.824;2023-07-20T22:16:01;5.70;;;5.20;;
19889;SDS011;10107;51.198;6.824;2023-07-20T22:20:06;6.88;;;4.03;;
19889;SDS011;10107;51.198;6.824;2023-07-20T22:24:11;5.70;;;5.10;;
19889;SDS011;10107;51.198;6.824;2023-07-20T22:28:13;6.18;;;4.88;;
19889;SDS011;10107;51.198;6.824;2023-07-20T22:32:15;7.70;;;5.32;;
19889;SDS011;10107;51.198;6.824;2023-07-20T22:36:19;5.70;;;4.22;;
19889;SDS011;10107;51.198;6.824;2023-07-20T22:40:20;5.47;;;4.70;;
19889;SDS011;10107;51.198;6.824;2023-07-20T22:44:22;4.65;;;4.10;;
19889;SDS011;10107;51.198;6.824;2023-07-20T22:48:24;5.13;;;4.38;;
19889;SDS011;10107;51.198;6.824;2023-07-20T22:52:29;5.70;;;4.28;;
19889;SDS011;10107;51.198;6.824;2023-07-20T22:56:32;6.13;;;4.57;;
19889;SDS011;10107;51.198;6.824;2023-07-20T23:00:34;6.07;;;4.10;;
19889;SDS011;10107;51.198;6.824;2023-07-20T23:04:36;6.00;;;4.43;;
19889;SDS011;10107;51.198;6.824;2023-07-20T23:08:39;5.50;;;4.30;;
19889;SDS011;10107;51.198;6.824;2023-07-20T23:12:41;4.70;;;4.15;;
19889;SDS011;10107;51.198;6.824;2023-07-20T23:16:44;5.00;;;4.30;;
19889;SDS011;10107;51.198;6.824;2023-07-20T23:20:46;4.38;;;3.92;;
19889;SDS011;10107;51.198;6.824;2023-07-20T23:24:49;4.97;;;4.30;;
19889;SDS011;10107;51.198;6.824;2023-07-20T23:28:52;3.20;;;2.95;;
19889;SDS011;10107;51.198;6.824;2023-07-20T23:32:54;6.20;;;4.45;;
19889;SDS011;10107;51.198;6.824;2023-07-20T23:36:56;5.43;;;4.45;;
19889;SDS011;10107;51.198;6.824;2023-07-20T23:40:59;4.80;;;4.30;;
19889;SDS011;10107;51.198;6.824;2023-07-20T23:45:00;6.03;;;4.77;;
19889;SDS011;10107;51.198;6.824;2023-07-20T23:49:02;5.25;;;4.75;;
19889;SDS011;10107;51.198;6.824;2023-07-20T23:53:04;5.75;;;5.22;;
19889;SDS011;10107;51.198;6.824;2023-07-20T23:57:07;5.60;;;4.70;;
